Sharon, Kansas
Current Conditions -  °F | °C
As of 1:35 AM on Monday 22 Dec 2014 (Local Time) from KPTT Reporting Station
Haze Haze  
Wind Chill: 37°   Ceiling: 200
Heat Index: 43°   Visibility: 1mi
Dew Point: 41°   Wind: 9mph
Humidity: 93%   Direction: 180°S
Pressure: 29.57"   Gusts: NA
Location:  37.25°N, 98.42°W
Report Text: KPTT 220735Z AUTO 18008KT 1SM BR OVC002 06/05 A2957 RMK AO2
Loading
Personal Weather Stations






























Interactive Weather Map New forecast layout! Learn more

10-Day Weather Forecast

Advertisements
Track Severe Weather on mobile